Time;durP1;ratioP1;P1;durP2;ratioP2;P2;SDS_P1;SDS_P2;PMS_P1;PMS_P2;Temp;Humidity;BMP_temperature;BMP_pressure;BME280_temperature;BME280_humidity;BME280_pressure;Samples;Min_cycle;Max_cycle;Signal;HPM_P1;HPM_P2
2022/09/09 00:02:12;;;;;;;;;;;;;;;21.22;67.71;99590.91;4364465;32;33275;-84
2022/09/09 00:04:39;;;;;;;;;;;;;;;21.40;67.35;99579.47;4376709;32;32580;-85
2022/09/09 00:07:20;;;;;;;;;;;;;;;21.50;66.78;99579.47;4364040;32;34193;-84
2022/09/09 00:10:18;;;;;;;;;;;;;;;21.17;67.69;99570.81;4376492;32;34880;-84
2022/09/09 00:12:51;;;;;;;;;;;;;;;21.37;67.22;99569.88;4357864;32;34601;-84
2022/09/09 00:15:20;;;;;;;;;;;;;;;20.92;69.25;99580.25;4363498;32;33088;-84
2022/09/09 00:17:49;;;;;;;;;;;;;;;21.03;68.44;99600.75;4364246;32;33860;-84
2022/09/09 00:20:20;;;;;;;;;;;;;;;21.09;68.62;99602.91;4376559;32;33104;-84
2022/09/09 00:22:51;;;;;;;;;;;;;;;21.03;68.80;99598.94;4362938;32;33246;-84
2022/09/09 00:25:23;;;;;;;;;;;;;;;21.34;67.56;99585.44;4351053;32;34037;-84
2022/09/09 00:27:51;;;;;;;;;;;;;;;21.23;68.07;99581.00;4363742;32;32848;-84
2022/09/09 00:30:22;;;;;;;;;;;;;;;21.31;67.71;99585.69;4363833;32;33178;-84
2022/09/09 00:32:50;;;;;;;;;;;;;;;21.23;67.69;99589.91;4351947;32;33378;-84
2022/09/09 00:35:22;;;;;;;;;;;;;;;21.20;67.80;99592.03;4375891;32;33519;-85
2022/09/09 00:37:50;;;;;;;;;;;;;;;21.32;67.58;99587.41;4351505;32;33264;-84
2022/09/09 00:40:22;;;;;;;;;;;;;;;21.38;67.36;99592.22;4363421;32;34658;-85
2022/09/09 00:42:51;;;;;;;;;;;;;;;21.36;67.28;99594.19;4348788;32;874555;-85
2022/09/09 00:45:26;;;;;;;;;;;;;;;21.49;66.58;99592.06;4342931;32;32115;-85
2022/09/09 00:47:54;;;;;;;;;;;;;;;21.55;66.14;99588.81;4362327;32;33768;-84
2022/09/09 00:50:24;;;;;;;;;;;;;;;21.41;66.66;99582.03;4349241;32;33569;-84
2022/09/09 00:53:21;;;;;;;;;;;;;;;21.52;66.04;99582.87;4354672;32;32726;-84
2022/09/09 00:55:49;;;;;;;;;;;;;;;21.25;66.94;99587.06;4347017;32;33656;-84
2022/09/09 00:58:16;;;;;;;;;;;;;;;21.20;67.21;99589.34;4368092;32;32790;-85
2022/09/09 01:00:48;;;;;;;;;;;;;;;21.03;67.57;99598.06;4347695;32;34727;-84
2022/09/09 01:03:34;;;;;;;;;;;;;;;21.19;67.13;99604.59;4343144;32;33069;-83
2022/09/09 01:06:05;;;;;;;;;;;;;;;21.05;67.50;99602.31;4353404;32;31930;-84
2022/09/09 01:08:51;;;;;;;;;;;;;;;21.31;66.38;99601.81;4358059;32;33151;-83
2022/09/09 01:11:38;;;;;;;;;;;;;;;21.08;67.36;99603.88;4357039;32;33670;-84
2022/09/09 01:14:39;;;;;;;;;;;;;;;20.75;68.08;99610.41;4366936;32;33703;-84
2022/09/09 01:17:09;;;;;;;;;;;;;;;20.85;68.30;99611.31;4337160;32;33159;-84
2022/09/09 01:19:44;;;;;;;;;;;;;;;20.67;68.76;99611.97;4360166;32;34838;-84
2022/09/09 01:22:19;;;;;;;;;;;;;;;20.75;68.80;99618.47;4368822;32;33997;-84
2022/09/09 01:25:05;;;;;;;;;;;;;;;20.77;68.66;99616.53;4369813;32;34281;-84
2022/09/09 01:27:34;;;;;;;;;;;;;;;20.84;68.16;99629.25;4370570;32;33751;-83
2022/09/09 01:30:04;;;;;;;;;;;;;;;20.71;68.62;99626.81;4355708;32;34881;-83
2022/09/09 01:32:42;;;;;;;;;;;;;;;20.65;68.65;99622.00;4349360;32;34255;-83
2022/09/09 01:35:30;;;;;;;;;;;;;;;20.67;68.56;99628.06;4363564;32;33905;-83
2022/09/09 01:37:59;;;;;;;;;;;;;;;20.85;67.82;99632.78;4349942;32;33475;-84
2022/09/09 01:40:26;;;;;;;;;;;;;;;20.85;67.66;99630.13;4356088;32;34192;-83
2022/09/09 01:42:54;;;;;;;;;;;;;;;20.82;67.83;99639.28;4323584;32;34431;-83
2022/09/09 01:45:22;;;;;;;;;;;;;;;21.00;67.08;99635.94;4362346;32;33003;-83
2022/09/09 01:47:50;;;;;;;;;;;;;;;20.86;67.22;99637.16;4375517;32;33071;-83
2022/09/09 01:50:18;;;;;;;;;;;;;;;20.97;66.84;99643.25;4349910;32;34139;-83
2022/09/09 01:52:46;;;;;;;;;;;;;;;20.88;67.15;99648.59;4375921;32;34071;-83
2022/09/09 01:55:14;;;;;;;;;;;;;;;20.70;67.77;99643.91;4363063;32;33115;-83
2022/09/09 01:57:59;;;;;;;;;;;;;;;20.86;67.50;99640.69;4363463;32;32312;-83
2022/09/09 02:00:27;;;;;;;;;;;;;;;20.74;67.73;99635.56;4375841;32;33780;-83
2022/09/09 02:02:57;;;;;;;;;;;;;;;20.82;67.67;99635.75;4363173;32;33481;-83
2022/09/09 02:05:41;;;;;;;;;;;;;;;20.87;67.39;99630.81;4350878;32;33046;-84
2022/09/09 02:08:11;;;;;;;;;;;;;;;20.23;69.65;99634.59;4363018;32;32009;-84
2022/09/09 02:10:42;;;;;;;;;;;;;;;20.60;68.69;99624.22;4350082;32;32559;-84
2022/09/09 02:13:11;;;;;;;;;;;;;;;20.74;67.95;99631.03;4375626;32;34921;-84
2022/09/09 02:15:39;;;;;;;;;;;;;;;20.67;68.10;99633.44;4364061;32;33770;-84
2022/09/09 02:18:07;;;;;;;;;;;;;;;20.60;68.36;99634.94;4375900;32;32500;-84
2022/09/09 02:20:37;;;;;;;;;;;;;;;20.51;68.54;99641.13;4363373;32;33938;-84
2022/09/09 02:23:05;;;;;;;;;;;;;;;20.50;68.60;99634.06;4361599;32;34270;-84
2022/09/09 02:25:33;;;;;;;;;;;;;;;20.37;69.15;99638.78;4360213;32;33836;-84
2022/09/09 02:28:02;;;;;;;;;;;;;;;20.36;69.38;99631.69;4349561;32;32483;-84
2022/09/09 02:30:30;;;;;;;;;;;;;;;20.45;68.86;99622.84;4363704;32;33225;-84
2022/09/09 02:32:58;;;;;;;;;;;;;;;20.41;68.79;99624.09;4353360;32;33300;-83
2022/09/09 02:35:26;;;;;;;;;;;;;;;20.64;67.70;99614.91;4364756;32;33657;-83
2022/09/09 02:37:54;;;;;;;;;;;;;;;20.52;68.12;99612.47;4364551;32;31948;-83
2022/09/09 02:40:22;;;;;;;;;;;;;;;20.43;68.56;99617.63;4375896;32;34842;-84
2022/09/09 02:42:51;;;;;;;;;;;;;;;20.50;68.36;99617.97;4364695;32;34417;-84
2022/09/09 02:45:20;;;;;;;;;;;;;;;20.59;68.00;99614.47;4364462;32;33537;-83
2022/09/09 02:48:02;;;;;;;;;;;;;;;20.37;68.76;99617.31;4364460;32;32895;-84
2022/09/09 02:50:34;;;;;;;;;;;;;;;20.56;68.15;99616.59;4377421;32;34341;-84
2022/09/09 02:53:02;;;;;;;;;;;;;;;20.39;68.40;99618.88;4365701;32;34235;-84
2022/09/09 02:55:42;;;;;;;;;;;;;;;20.41;68.31;99626.78;4377521;32;34169;-84
2022/09/09 02:58:11;;;;;;;;;;;;;;;20.61;67.42;99631.28;4364856;32;32405;-84
2022/09/09 03:00:40;;;;;;;;;;;;;;;20.74;66.92;99631.03;4363476;32;33275;-84
2022/09/09 03:03:08;;;;;;;;;;;;;;;20.39;68.24;99628.75;4365223;32;33647;-84
2022/09/09 03:05:36;;;;;;;;;;;;;;;20.29;68.52;99641.28;4378825;32;34112;-84
2022/09/09 03:08:05;;;;;;;;;;;;;;;20.37;68.20;99638.78;4351287;32;33669;-85
2022/09/09 03:10:32;;;;;;;;;;;;;;;20.44;68.06;99632.72;4376468;32;33662;-84
2022/09/09 03:13:00;;;;;;;;;;;;;;;20.28;68.49;99634.22;4350219;32;34625;-84
2022/09/09 03:15:30;;;;;;;;;;;;;;;20.48;67.94;99641.41;4372377;32;34229;-84
2022/09/09 03:17:58;;;;;;;;;;;;;;;20.50;67.57;99635.87;4377522;32;33042;-84
2022/09/09 03:20:26;;;;;;;;;;;;;;;20.78;66.25;99643.22;4364666;32;34079;-83
2022/09/09 03:22:54;;;;;;;;;;;;;;;20.65;66.72;99645.25;4364902;32;34063;-82
2022/09/09 03:25:25;;;;;;;;;;;;;;;20.57;66.88;99650.47;4364798;32;34361;-83
2022/09/09 03:27:54;;;;;;;;;;;;;;;20.51;66.84;99641.13;4377122;32;32682;-83
2022/09/09 03:30:23;;;;;;;;;;;;;;;20.80;66.03;99635.87;4376841;32;33161;-83
2022/09/09 03:32:51;;;;;;;;;;;;;;;20.62;66.51;99638.34;4345103;32;34483;-83
2022/09/09 03:35:19;;;;;;;;;;;;;;;20.19;68.13;99642.06;4377346;32;34151;-83
2022/09/09 03:37:46;;;;;;;;;;;;;;;20.15;68.54;99647.81;4364655;32;33797;-83
2022/09/09 03:40:15;;;;;;;;;;;;;;;20.27;67.95;99644.09;4364795;32;32915;-84
2022/09/09 03:42:43;;;;;;;;;;;;;;;20.25;68.09;99646.03;4376719;32;33363;-83
2022/09/09 03:45:11;;;;;;;;;;;;;;;20.09;68.61;99649.19;4363060;32;32838;-83
2022/09/09 03:47:38;;;;;;;;;;;;;;;20.20;68.10;99648.28;4364635;32;33244;-83
2022/09/09 03:50:08;;;;;;;;;;;;;;;20.17;68.18;99654.72;4363798;32;34553;-83
2022/09/09 03:52:36;;;;;;;;;;;;;;;20.15;68.18;99659.38;4352157;32;32834;-84
2022/09/09 03:55:05;;;;;;;;;;;;;;;20.26;67.79;99657.59;4364024;32;34460;-84
2022/09/09 03:57:36;;;;;;;;;;;;;;;20.15;68.37;99661.22;4376441;32;33475;-84
2022/09/09 04:00:05;;;;;;;;;;;;;;;20.13;68.30;99658.69;4376963;32;34336;-84
2022/09/09 04:02:43;;;;;;;;;;;;;;;19.97;68.59;99669.00;4362830;32;33450;-83
2022/09/09 04:05:11;;;;;;;;;;;;;;;20.11;68.51;99665.13;4363898;32;34440;-83
2022/09/09 04:07:39;;;;;;;;;;;;;;;20.11;68.39;99668.66;4365165;32;33187;-82
2022/09/09 04:10:08;;;;;;;;;;;;;;;20.20;68.18;99662.53;4364202;32;34069;-83
2022/09/09 04:12:37;;;;;;;;;;;;;;;19.89;69.15;99655.38;4351847;32;33462;-82
2022/09/09 04:15:05;;;;;;;;;;;;;;;19.95;69.04;99655.72;4376927;32;33162;-82
2022/09/09 04:17:33;;;;;;;;;;;;;;;20.16;68.54;99665.59;4351368;32;33046;-83
2022/09/09 04:20:01;;;;;;;;;;;;;;;19.99;68.80;99664.38;4363832;32;32830;-83
2022/09/09 04:22:28;;;;;;;;;;;;;;;19.74;69.38;99657.53;4364114;32;32928;-84
2022/09/09 04:24:55;;;;;;;;;;;;;;;20.07;68.61;99658.34;4366178;32;33115;-83
2022/09/09 04:27:25;;;;;;;;;;;;;;;19.92;68.92;99660.50;4359828;32;34205;-83
2022/09/09 04:29:53;;;;;;;;;;;;;;;19.93;68.90;99655.00;4364195;32;33979;-83
2022/09/09 04:32:21;;;;;;;;;;;;;;;19.86;69.34;99658.34;4362708;32;34016;-83
2022/09/09 04:34:48;;;;;;;;;;;;;;;19.95;68.84;99655.72;4346691;32;33123;-83
2022/09/09 04:37:16;;;;;;;;;;;;;;;19.90;69.03;99662.47;4351919;32;32498;-83
2022/09/09 04:39:44;;;;;;;;;;;;;;;19.66;70.33;99657.34;4376546;32;33800;-84
2022/09/09 04:42:12;;;;;;;;;;;;;;;19.55;70.44;99646.62;4364387;32;33881;-83
2022/09/09 04:44:42;;;;;;;;;;;;;;;19.92;69.11;99645.25;4365442;32;33850;-83
2022/09/09 04:47:09;;;;;;;;;;;;;;;19.57;70.21;99650.87;4360732;32;32559;-83
2022/09/09 04:49:38;;;;;;;;;;;;;;;19.76;69.96;99650.22;4376107;32;34143;-83
2022/09/09 04:52:05;;;;;;;;;;;;;;;19.88;69.76;99645.66;4364442;32;33247;-83
2022/09/09 04:54:33;;;;;;;;;;;;;;;20.17;68.34;99653.88;4374203;32;34788;-84
2022/09/09 04:57:01;;;;;;;;;;;;;;;20.03;69.09;99649.69;4365587;32;33337;-83
2022/09/09 04:59:28;;;;;;;;;;;;;;;20.05;69.11;99649.59;4363755;32;33071;-84
2022/09/09 05:01:56;;;;;;;;;;;;;;;20.03;69.18;99657.75;4364634;32;34138;-84
2022/09/09 05:04:24;;;;;;;;;;;;;;;20.16;68.57;99657.56;4352049;32;33061;-83
2022/09/09 05:06:51;;;;;;;;;;;;;;;20.07;69.02;99667.22;4342411;32;32261;-83
2022/09/09 05:09:18;;;;;;;;;;;;;;;19.97;69.03;99666.31;4378203;32;34556;-84
2022/09/09 05:11:46;;;;;;;;;;;;;;;19.71;69.85;99670.34;4351042;32;33486;-84
2022/09/09 05:14:14;;;;;;;;;;;;;;;19.64;70.19;99670.84;4376237;32;34055;-82
2022/09/09 05:16:44;;;;;;;;;;;;;;;19.76;70.12;99665.47;4365388;32;33524;-82
2022/09/09 05:19:12;;;;;;;;;;;;;;;19.75;70.33;99671.78;4377276;32;32832;-82
2022/09/09 05:21:41;;;;;;;;;;;;;;;19.88;69.91;99667.09;4362363;32;32923;-82
2022/09/09 05:24:08;;;;;;;;;;;;;;;19.99;69.53;99661.69;4362090;32;32841;-82
2022/09/09 05:26:36;;;;;;;;;;;;;;;20.20;68.87;99659.84;4378680;32;33254;-82
2022/09/09 05:29:04;;;;;;;;;;;;;;;20.15;69.07;99666.59;4377615;32;34841;-82
2022/09/09 05:31:32;;;;;;;;;;;;;;;20.16;69.24;99669.12;4365433;32;33216;-82
2022/09/09 05:34:00;;;;;;;;;;;;;;;19.84;70.34;99679.88;4362472;32;36113;-81
2022/09/09 05:36:28;;;;;;;;;;;;;;;20.16;69.22;99679.00;4362557;32;33480;-82
2022/09/09 05:38:55;;;;;;;;;;;;;;;20.20;69.01;99683.13;4362470;32;34175;-82
2022/09/09 05:41:23;;;;;;;;;;;;;;;20.16;68.79;99682.53;4364351;32;34101;-82
2022/09/09 05:43:52;;;;;;;;;;;;;;;20.46;68.20;99675.50;4376847;32;33332;-82
2022/09/09 05:46:21;;;;;;;;;;;;;;;20.40;68.94;99681.41;4363400;32;32602;-82
2022/09/09 05:48:51;;;;;;;;;;;;;;;20.49;68.44;99682.47;4377064;32;34504;-82
2022/09/09 05:51:23;;;;;;;;;;;;;;;20.87;66.90;99679.13;4363640;32;34314;-82
2022/09/09 05:53:51;;;;;;;;;;;;;;;20.79;67.31;99681.63;4376865;32;32952;-82
2022/09/09 05:56:21;;;;;;;;;;;;;;;20.87;67.17;99673.75;4363263;32;34030;-83
2022/09/09 05:58:49;;;;;;;;;;;;;;;21.03;66.66;99682.16;4363962;32;34202;-82
2022/09/09 06:01:18;;;;;;;;;;;;;;;20.91;67.66;99678.72;4362313;32;33093;-82
2022/09/09 06:03:47;;;;;;;;;;;;;;;20.61;67.48;99676.91;4347238;32;32884;-83
2022/09/09 06:06:20;;;;;;;;;;;;;;;20.73;67.29;99679.47;4376676;32;32536;-83
2022/09/09 06:08:50;;;;;;;;;;;;;;;20.87;67.07;99679.97;4360741;32;33800;-83
2022/09/09 06:11:22;;;;;;;;;;;;;;;20.90;67.07;99678.84;4373574;32;33729;-83
2022/09/09 06:13:54;;;;;;;;;;;;;;;21.11;66.85;99679.63;4355289;32;33631;-83
2022/09/09 06:16:38;;;;;;;;;;;;;;;20.88;67.70;99678.12;4352385;32;32472;-86
2022/09/09 06:19:06;;;;;;;;;;;;;;;21.27;66.03;99678.22;4363910;32;33395;-83
2022/09/09 06:21:35;;;;;;;;;;;;;;;20.95;67.51;99672.09;4364536;32;33998;-83
2022/09/09 06:24:03;;;;;;;;;;;;;;;21.21;67.35;99676.94;4365520;32;33673;-83
2022/09/09 06:26:32;;;;;;;;;;;;;;;21.33;66.37;99675.03;4365117;32;33284;-83
2022/09/09 06:29:00;;;;;;;;;;;;;;;21.31;66.68;99679.69;4363852;32;32785;-83
2022/09/09 06:31:29;;;;;;;;;;;;;;;21.49;65.74;99675.34;4363861;32;33519;-83
2022/09/09 06:33:58;;;;;;;;;;;;;;;21.71;64.98;99682.28;4349490;32;33997;-83
2022/09/09 06:36:29;;;;;;;;;;;;;;;21.81;65.17;99682.28;4348156;32;31692;-83
2022/09/09 06:38:58;;;;;;;;;;;;;;;21.78;65.60;99687.94;4374238;32;34861;-83
2022/09/09 06:41:26;;;;;;;;;;;;;;;21.53;65.71;99675.91;4340347;32;34404;-83
2022/09/09 06:43:57;;;;;;;;;;;;;;;21.92;64.66;99679.44;4365427;32;33974;-83
2022/09/09 06:46:32;;;;;;;;;;;;;;;21.82;65.30;99686.69;4353003;32;32359;-83
2022/09/09 06:48:59;;;;;;;;;;;;;;;21.87;64.32;99679.88;4366696;32;33851;-83
2022/09/09 06:51:28;;;;;;;;;;;;;;;21.88;65.13;99686.09;4363714;32;34732;-83
2022/09/09 06:53:57;;;;;;;;;;;;;;;22.20;63.61;99691.19;4363494;32;34174;-83
2022/09/09 06:56:27;;;;;;;;;;;;;;;22.17;64.12;99694.16;4362338;32;31752;-83
2022/09/09 06:58:56;;;;;;;;;;;;;;;22.05;63.47;99693.47;4361637;32;33866;-83
2022/09/09 07:01:24;;;;;;;;;;;;;;;21.98;63.35;99695.87;4342746;32;34227;-83
2022/09/09 07:03:52;;;;;;;;;;;;;;;21.99;63.18;99694.03;4362244;32;33768;-83
2022/09/09 07:06:31;;;;;;;;;;;;;;;21.83;63.24;99696.44;4363865;32;32440;-83
2022/09/09 07:08:59;;;;;;;;;;;;;;;21.90;62.89;99701.09;4364724;32;33009;-83
2022/09/09 07:11:34;;;;;;;;;;;;;;;21.79;63.16;99703.06;4375735;32;33889;-83
2022/09/09 07:14:02;;;;;;;;;;;;;;;21.71;63.52;99699.25;4372161;32;34055;-83
2022/09/09 07:16:31;;;;;;;;;;;;;;;21.75;63.30;99704.37;4363428;32;33459;-83
2022/09/09 07:19:00;;;;;;;;;;;;;;;21.88;62.65;99697.69;4363202;32;32776;-83
2022/09/09 07:21:28;;;;;;;;;;;;;;;22.16;62.31;99711.31;4365299;32;33035;-82
2022/09/09 07:23:56;;;;;;;;;;;;;;;22.14;63.31;99702.53;4352708;32;33846;-81
2022/09/09 07:26:25;;;;;;;;;;;;;;;22.01;62.91;99700.09;4365393;32;32590;-81
2022/09/09 07:28:53;;;;;;;;;;;;;;;22.28;61.81;99702.09;4363919;32;33043;-82
2022/09/09 07:31:32;;;;;;;;;;;;;;;22.79;60.96;99697.25;4365596;32;34063;-81
2022/09/09 07:34:00;;;;;;;;;;;;;;;22.73;61.03;99707.62;4376506;32;33299;-82
2022/09/09 07:36:29;;;;;;;;;;;;;;;22.77;60.81;99704.66;4365574;32;33580;-82
2022/09/09 07:39:01;;;;;;;;;;;;;;;23.06;59.52;99704.56;4364613;32;33131;-81
2022/09/09 07:41:36;;;;;;;;;;;;;;;23.18;60.02;99698.00;4343005;32;33529;-82
2022/09/09 07:44:05;;;;;;;;;;;;;;;23.07;59.17;99706.25;4363870;32;32502;-82
2022/09/09 07:46:33;;;;;;;;;;;;;;;23.57;59.53;99698.59;4377369;32;32362;-82
2022/09/09 07:49:02;;;;;;;;;;;;;;;23.39;59.71;99708.47;4376502;32;33790;-82
2022/09/09 07:51:41;;;;;;;;;;;;;;;23.60;58.07;99705.53;4350678;32;33530;-82
2022/09/09 07:54:10;;;;;;;;;;;;;;;23.59;57.99;99704.66;4365516;32;33666;-81
2022/09/09 07:56:39;;;;;;;;;;;;;;;23.91;57.78;99704.16;4351235;32;31931;-82
2022/09/09 07:59:07;;;;;;;;;;;;;;;24.33;54.76;99711.59;4376838;32;32704;-82
2022/09/09 08:01:38;;;;;;;;;;;;;;;23.82;57.00;99701.53;4364787;32;33521;-82
2022/09/09 08:04:08;;;;;;;;;;;;;;;24.32;56.19;99706.38;4350049;32;33314;-82
2022/09/09 08:06:37;;;;;;;;;;;;;;;24.09;56.44;99704.16;4364771;32;33369;-81
2022/09/09 08:09:05;;;;;;;;;;;;;;;24.38;54.50;99698.50;4378566;32;34219;-82
2022/09/09 08:11:33;;;;;;;;;;;;;;;24.61;54.51;99706.94;4364100;32;33310;-83
2022/09/09 08:14:07;;;;;;;;;;;;;;;24.71;53.92;99696.00;4364893;32;33886;-82
2022/09/09 08:16:37;;;;;;;;;;;;;;;24.84;53.76;99698.28;4363603;32;32613;-82
2022/09/09 08:19:07;;;;;;;;;;;;;;;24.92;54.40;99701.00;4351411;32;34322;-82
2022/09/09 08:21:36;;;;;;;;;;;;;;;25.32;52.66;99691.41;4373759;32;34832;-82
2022/09/09 08:24:07;;;;;;;;;;;;;;;25.03;53.72;99693.47;4350452;32;32815;-82
2022/09/09 08:26:35;;;;;;;;;;;;;;;25.32;52.56;99694.13;4355310;32;34100;-83
2022/09/09 08:29:03;;;;;;;;;;;;;;;25.55;52.02;99692.50;4365723;32;35065;-82
2022/09/09 08:31:31;;;;;;;;;;;;;;;25.81;50.62;99692.38;4359621;32;34077;-82
2022/09/09 08:34:00;;;;;;;;;;;;;;;25.69;51.53;99694.53;4376393;32;34225;-82
2022/09/09 08:36:28;;;;;;;;;;;;;;;25.47;51.92;99695.16;4364598;32;32435;-82
2022/09/09 08:38:56;;;;;;;;;;;;;;;25.87;50.91;99696.28;4356898;32;33416;-82
2022/09/09 08:41:25;;;;;;;;;;;;;;;25.84;51.38;99696.63;4364208;32;34131;-82
2022/09/09 08:43:58;;;;;;;;;;;;;;;25.83;50.42;99693.06;4375698;32;33803;-84
2022/09/09 08:46:47;;;;;;;;;;;;;;;25.81;50.10;99702.34;4363819;32;31851;-82
2022/09/09 08:49:18;;;;;;;;;;;;;;;26.06;50.71;99698.63;4360057;32;33920;-85
2022/09/09 08:51:46;;;;;;;;;;;;;;;25.99;48.51;99705.75;4363968;32;33581;-85
2022/09/09 08:54:13;;;;;;;;;;;;;;;25.87;50.12;99701.69;4351233;32;34548;-84
2022/09/09 08:57:01;;;;;;;;;;;;;;;26.02;49.00;99706.28;4374008;32;31901;-84
2022/09/09 08:59:28;;;;;;;;;;;;;;;26.27;47.95;99699.00;4364002;32;33385;-85
2022/09/09 09:02:01;;;;;;;;;;;;;;;26.40;47.17;99694.94;4363553;32;33389;-85
2022/09/09 09:04:44;;;;;;;;;;;;;;;26.60;47.01;99695.41;4349445;32;33193;-85
2022/09/09 09:07:17;;;;;;;;;;;;;;;26.68;47.87;99696.25;4344715;32;32296;-85
2022/09/09 09:10:01;;;;;;;;;;;;;;;27.08;45.91;99699.88;4364616;32;34394;-85
2022/09/09 09:12:31;;;;;;;;;;;;;;;27.29;44.54;99686.53;4363330;32;33957;-85
2022/09/09 09:14:58;;;;;;;;;;;;;;;27.23;43.52;99679.13;4379064;32;34202;-86
2022/09/09 09:17:27;;;;;;;;;;;;;;;27.24;44.09;99685.38;4375223;32;31739;-86
2022/09/09 09:19:54;;;;;;;;;;;;;;;27.26;44.99;99677.94;4364978;32;35035;-86
2022/09/09 09:22:25;;;;;;;;;;;;;;;27.16;44.59;99671.91;4361076;32;34038;-85
2022/09/09 09:24:56;;;;;;;;;;;;;;;27.65;42.65;99672.44;4352830;32;34033;-85
2022/09/09 09:27:24;;;;;;;;;;;;;;;27.75;42.74;99667.66;4351703;32;32756;-85
2022/09/09 09:29:53;;;;;;;;;;;;;;;27.73;41.97;99661.56;4376703;32;32196;-85
2022/09/09 09:32:41;;;;;;;;;;;;;;;27.49;44.31;99667.13;4362221;32;32518;-85
2022/09/09 09:35:10;;;;;;;;;;;;;;;27.57;43.66;99658.91;4351634;32;33778;-85
2022/09/09 09:37:37;;;;;;;;;;;;;;;27.96;41.71;99656.09;4363911;32;33306;-85
2022/09/09 09:40:25;;;;;;;;;;;;;;;27.96;38.77;99649.84;4374729;32;33760;-86
2022/09/09 09:42:53;;;;;;;;;;;;;;;27.70;40.49;99664.59;4362952;32;33069;-85
2022/09/09 09:45:24;;;;;;;;;;;;;;;27.73;39.88;99669.72;4362964;32;33113;-86
2022/09/09 09:47:58;;;;;;;;;;;;;;;27.84;40.07;99667.59;4364028;32;34294;-85
2022/09/09 09:50:33;;;;;;;;;;;;;;;28.22;38.20;99672.00;4352183;32;33000;-85
2022/09/09 09:53:04;;;;;;;;;;;;;;;28.26;36.63;99670.63;4363319;32;34368;-85
2022/09/09 09:55:33;;;;;;;;;;;;;;;28.01;36.49;99666.41;4364376;32;34480;-85
2022/09/09 09:58:03;;;;;;;;;;;;;;;27.93;37.53;99669.22;4364078;32;34666;-85
2022/09/09 10:00:50;;;;;;;;;;;;;;;28.20;34.54;99665.94;4348827;32;34758;-85
2022/09/09 10:03:31;;;;;;;;;;;;;;;28.16;35.10;99670.03;4333337;33;34304;-85
2022/09/09 10:06:00;;;;;;;;;;;;;;;28.34;35.25;99661.56;4320906;33;32947;-85
2022/09/09 10:08:28;;;;;;;;;;;;;;;28.47;34.75;99650.06;4325470;33;32749;-85
2022/09/09 10:10:55;;;;;;;;;;;;;;;28.11;39.01;99656.16;4324472;33;33283;-85
2022/09/09 10:13:26;;;;;;;;;;;;;;;28.63;35.17;99655.34;4345520;33;33856;-85
2022/09/09 10:16:22;;;;;;;;;;;;;;;28.70;36.53;99653.53;4337631;33;33868;-85
2022/09/09 10:18:55;;;;;;;;;;;;;;;28.91;35.73;99652.75;4310203;32;33629;-84
2022/09/09 10:21:42;;;;;;;;;;;;;;;29.37;35.90;99648.97;4373657;32;33882;-86
2022/09/09 10:24:13;;;;;;;;;;;;;;;29.46;35.14;99645.09;4373713;32;33055;-86
2022/09/09 10:26:55;;;;;;;;;;;;;;;29.52;35.03;99649.75;4374763;32;32198;-86
2022/09/09 10:29:25;;;;;;;;;;;;;;;29.76;32.78;99645.84;4374476;32;34066;-85
2022/09/09 10:31:53;;;;;;;;;;;;;;;29.36;31.01;99650.00;4362361;32;33884;-85
2022/09/09 10:34:26;;;;;;;;;;;;;;;29.74;31.66;99653.38;4375274;32;35132;-85
2022/09/09 10:36:58;;;;;;;;;;;;;;;29.67;32.45;99647.00;4366712;32;33812;-85
2022/09/09 10:39:34;;;;;;;;;;;;;;;29.68;30.97;99648.72;4363024;32;33006;-85
2022/09/09 10:42:16;;;;;;;;;;;;;;;29.71;28.99;99645.59;4361893;32;34143;-85
2022/09/09 10:44:50;;;;;;;;;;;;;;;29.70;31.34;99646.62;4362648;32;35034;-85
2022/09/09 10:47:32;;;;;;;;;;;;;;;29.88;30.28;99652.47;4360159;32;32715;-85
2022/09/09 10:50:12;;;;;;;;;;;;;;;29.79;30.51;99640.03;4372530;32;33067;-84
2022/09/09 10:52:42;;;;;;;;;;;;;;;29.96;31.22;99644.16;4374197;32;36682;-85
2022/09/09 10:55:10;;;;;;;;;;;;;;;30.08;31.14;99644.47;4373898;32;35034;-85
2022/09/09 10:57:41;;;;;;;;;;;;;;;30.10;30.16;99643.25;4363839;32;34155;-85
2022/09/09 11:00:22;;;;;;;;;;;;;;;30.08;30.60;99645.31;4363305;32;33848;-84
2022/09/09 11:03:00;;;;;;;;;;;;;;;29.72;30.41;99637.25;4364395;32;33420;-85
2022/09/09 11:05:33;;;;;;;;;;;;;;;29.34;32.96;99631.16;4362836;32;33140;-84
2022/09/09 11:08:03;;;;;;;;;;;;;;;29.83;31.31;99634.00;4363341;32;32862;-85
2022/09/09 11:10:36;;;;;;;;;;;;;;;30.07;30.54;99629.16;4364102;32;33423;-85
2022/09/09 11:13:04;;;;;;;;;;;;;;;30.12;29.92;99626.69;4364417;32;33180;-84
2022/09/09 11:15:35;;;;;;;;;;;;;;;30.21;30.29;99622.81;4377598;32;33293;-84
2022/09/09 11:18:04;;;;;;;;;;;;;;;30.03;28.96;99620.53;4364359;32;34534;-88
2022/09/09 11:20:32;;;;;;;;;;;;;;;29.80;30.24;99626.22;4363575;32;33180;-88
2022/09/09 11:23:10;;;;;;;;;;;;;;;29.99;31.34;99621.97;4364206;32;33822;-88
2022/09/09 11:25:58;;;;;;;;;;;;;;;30.21;30.16;99630.16;4363485;32;32918;-88
2022/09/09 11:28:44;;;;;;;;;;;;;;;30.46;30.60;99625.06;4363015;32;34168;-87
2022/09/09 11:31:27;;;;;;;;;;;;;;;30.33;31.50;99632.09;4376520;32;33525;-88
2022/09/09 11:34:08;;;;;;;;;;;;;;;30.22;30.06;99640.84;4363889;32;34220;-88
2022/09/09 11:36:42;;;;;;;;;;;;;;;29.90;32.14;99631.31;4350696;32;34629;-88
2022/09/09 11:39:24;;;;;;;;;;;;;;;30.01;30.65;99641.69;4377714;32;33709;-88
2022/09/09 11:41:52;;;;;;;;;;;;;;;30.14;30.23;99637.41;4375465;32;32710;-88
2022/09/09 11:44:24;;;;;;;;;;;;;;;30.01;30.24;99627.25;4363530;32;34008;-88
2022/09/09 11:47:01;;;;;;;;;;;;;;;30.02;31.05;99628.91;4364437;32;34252;-88
2022/09/09 11:49:31;;;;;;;;;;;;;;;29.79;30.93;99637.31;4374064;32;33922;-88
2022/09/09 11:51:58;;;;;;;;;;;;;;;29.53;31.54;99635.97;4363534;32;32266;-88
2022/09/09 11:54:32;;;;;;;;;;;;;;;29.38;32.26;99628.88;4376464;32;34125;-87
2022/09/09 11:57:01;;;;;;;;;;;;;;;29.54;31.41;99628.66;4362951;32;34348;-88
2022/09/09 11:59:29;;;;;;;;;;;;;;;29.47;32.83;99625.84;4375338;32;33699;-88
2022/09/09 12:02:10;;;;;;;;;;;;;;;29.37;32.95;99624.50;4363125;32;32970;-88
2022/09/09 12:04:44;;;;;;;;;;;;;;;29.19;34.45;99624.91;4363618;32;33381;-88
2022/09/09 12:07:27;;;;;;;;;;;;;;;28.64;33.40;99626.28;4363967;32;33500;-88
2022/09/09 12:10:05;;;;;;;;;;;;;;;29.09;33.19;99630.66;4375524;32;33224;-88
2022/09/09 12:12:33;;;;;;;;;;;;;;;29.08;35.32;99646.12;4362768;32;33479;-88
2022/09/09 12:15:07;;;;;;;;;;;;;;;29.45;35.04;99640.69;4365102;32;34927;-88
2022/09/09 12:17:42;;;;;;;;;;;;;;;29.69;32.39;99634.06;4362660;32;33047;-88
2022/09/09 12:20:15;;;;;;;;;;;;;;;29.93;32.45;99643.72;4361038;32;34142;-88
2022/09/09 12:22:56;;;;;;;;;;;;;;;30.24;31.77;99630.59;4373644;32;33227;-88
2022/09/09 12:25:43;;;;;;;;;;;;;;;30.24;30.58;99627.00;4373823;32;33069;-88
2022/09/09 12:28:29;;;;;;;;;;;;;;;30.17;30.32;99629.69;4374562;32;32840;-88
2022/09/09 12:31:17;;;;;;;;;;;;;;;30.31;30.16;99614.28;4351646;32;32917;-89
2022/09/09 12:33:47;;;;;;;;;;;;;;;30.56;30.35;99603.75;4358927;32;32505;-89
2022/09/09 12:36:16;;;;;;;;;;;;;;;30.84;30.09;99596.37;4362521;32;32888;-84
2022/09/09 12:38:43;;;;;;;;;;;;;;;30.74;30.20;99593.19;4375078;32;34979;-86
2022/09/09 12:41:21;;;;;;;;;;;;;;;30.56;29.45;99592.84;4362512;32;34085;-86
2022/09/09 12:43:50;;;;;;;;;;;;;;;30.82;29.96;99590.31;4350483;32;32031;-86
2022/09/09 12:46:38;;;;;;;;;;;;;;;31.29;29.01;99583.16;4372131;32;32648;-85
2022/09/09 12:49:06;;;;;;;;;;;;;;;30.90;28.81;99581.09;4363483;32;33879;-85
2022/09/09 12:51:33;;;;;;;;;;;;;;;30.36;31.64;99598.19;4362455;32;34221;-87
2022/09/09 12:54:01;;;;;;;;;;;;;;;30.41;28.83;99583.97;4359976;32;33259;-85
2022/09/09 12:56:30;;;;;;;;;;;;;;;30.50;28.37;99583.59;4354080;32;33733;-86
2022/09/09 12:58:58;;;;;;;;;;;;;;;30.03;31.65;99582.44;4351420;32;33977;-90
2022/09/09 13:01:26;;;;;;;;;;;;;;;30.15;30.72;99573.72;4365212;32;33846;-91
2022/09/09 13:04:16;;;;;;;;;;;;;;;30.09;30.87;99564.44;4364102;32;32022;-91
2022/09/09 13:06:44;;;;;;;;;;;;;;;29.92;29.86;99563.94;4351826;32;32907;-84
2022/09/09 13:09:12;;;;;;;;;;;;;;;29.85;30.39;99555.69;4377443;32;35083;-85
2022/09/09 13:11:41;;;;;;;;;;;;;;;29.72;31.39;99555.62;4364927;32;34441;-85